createdAt,value
2022-11-14T00:02:18.688Z,4.33
2022-11-14T00:05:09.156Z,5.25
2022-11-14T00:07:57.136Z,9.80
2022-11-14T00:10:46.792Z,5.03
2022-11-14T00:13:35.879Z,4.10
2022-11-14T00:16:25.149Z,3.85
2022-11-14T00:22:00.558Z,4.47
2022-11-14T00:24:49.790Z,6.65
2022-11-14T00:27:38.256Z,4.37
2022-11-14T00:30:27.937Z,4.10
2022-11-14T00:33:20.527Z,5.45
2022-11-14T00:36:09.677Z,5.72
2022-11-14T00:38:57.720Z,5.33
2022-11-14T00:41:45.189Z,4.70
2022-11-14T00:44:33.023Z,4.85
2022-11-14T00:47:20.312Z,5.33
2022-11-14T00:50:09.667Z,4.50
2022-11-14T00:52:57.366Z,6.45
2022-11-14T00:55:45.421Z,5.90
2022-11-14T00:58:35.124Z,5.95
2022-11-14T01:01:23.158Z,5.33
2022-11-14T01:04:10.382Z,7.37
2022-11-14T01:09:44.875Z,7.55
2022-11-14T01:12:32.527Z,7.75
2022-11-14T01:15:20.689Z,6.80
2022-11-14T01:18:11.433Z,7.42
2022-11-14T01:20:59.109Z,7.85
2022-11-14T01:23:47.818Z,7.85
2022-11-14T01:26:36.983Z,9.70
2022-11-14T01:29:24.673Z,10.30
2022-11-14T01:32:11.720Z,6.45
2022-11-14T01:35:01.928Z,6.60
2022-11-14T01:37:50.113Z,7.17
2022-11-14T01:40:46.936Z,7.45
2022-11-14T01:43:37.041Z,9.25
2022-11-14T01:46:37.090Z,13.80
2022-11-14T01:49:29.133Z,10.78
2022-11-14T01:52:29.939Z,11.78
2022-11-14T01:55:18.854Z,13.20
2022-11-14T01:58:05.986Z,7.50
2022-11-14T02:00:53.489Z,8.87
2022-11-14T02:03:42.869Z,8.55
2022-11-14T02:06:31.800Z,7.12
2022-11-14T02:09:20.830Z,8.25
2022-11-14T02:12:09.928Z,9.05
2022-11-14T02:14:57.752Z,10.45
2022-11-14T02:17:46.659Z,7.50
2022-11-14T02:20:38.213Z,9.98
2022-11-14T02:23:30.535Z,7.92
2022-11-14T02:26:21.278Z,9.00
2022-11-14T02:29:10.764Z,10.05
2022-11-14T02:31:58.401Z,9.75
2022-11-14T02:34:47.493Z,8.45
2022-11-14T02:37:35.224Z,8.93
2022-11-14T02:40:22.573Z,10.65
2022-11-14T02:43:09.540Z,8.17
2022-11-14T02:46:00.213Z,8.80
2022-11-14T02:48:46.856Z,9.70
2022-11-14T02:51:34.478Z,11.48
2022-11-14T02:54:22.007Z,9.10
2022-11-14T02:57:10.980Z,9.38
2022-11-14T02:59:59.705Z,8.78
2022-11-14T03:05:34.617Z,6.08
2022-11-14T03:08:22.138Z,6.67
2022-11-14T03:11:10.128Z,7.70
2022-11-14T03:16:45.771Z,5.25
2022-11-14T03:19:34.730Z,12.35
2022-11-14T03:22:23.871Z,14.47
2022-11-14T03:25:11.478Z,14.78
2022-11-14T03:27:58.886Z,10.85
2022-11-14T03:30:46.876Z,9.73
2022-11-14T03:33:34.584Z,11.35
2022-11-14T03:36:22.216Z,12.18
2022-11-14T03:39:09.575Z,9.38
2022-11-14T03:41:56.489Z,9.20
2022-11-14T03:44:44.876Z,10.95
2022-11-14T03:47:32.772Z,10.78
2022-11-14T03:53:07.319Z,14.50
2022-11-14T03:55:54.505Z,11.30
2022-11-14T03:58:41.941Z,10.48
2022-11-14T04:01:29.688Z,11.55
2022-11-14T04:04:17.195Z,11.12
2022-11-14T04:07:04.874Z,12.53
2022-11-14T04:09:54.403Z,10.18
2022-11-14T04:12:50.397Z,12.10
2022-11-14T04:15:37.963Z,12.65
2022-11-14T04:18:26.070Z,11.93
2022-11-14T04:21:14.352Z,12.25
2022-11-14T04:24:08.434Z,9.48
2022-11-14T04:26:53.203Z,10.60
2022-11-14T04:29:41.119Z,12.03
2022-11-14T04:32:28.539Z,9.20
2022-11-14T04:35:16.708Z,14.35
2022-11-14T04:38:04.049Z,10.95
2022-11-14T04:40:53.028Z,11.12
2022-11-14T04:43:40.319Z,10.58
2022-11-14T04:46:28.009Z,11.40
2022-11-14T04:49:15.294Z,13.48
2022-11-14T04:54:51.779Z,9.18
2022-11-14T04:57:39.286Z,14.25
2022-11-14T05:03:13.612Z,10.93
2022-11-14T05:06:02.035Z,9.35
2022-11-14T05:08:49.902Z,14.18
2022-11-14T05:11:37.357Z,11.43
2022-11-14T05:14:25.325Z,11.03
2022-11-14T05:17:14.472Z,8.60
2022-11-14T05:20:02.522Z,13.75
2022-11-14T05:22:55.000Z,11.28
2022-11-14T05:25:44.219Z,12.33
2022-11-14T05:28:33.277Z,10.13
2022-11-14T05:31:21.237Z,12.40
2022-11-14T05:36:55.844Z,12.10
2022-11-14T05:39:43.803Z,10.60
2022-11-14T05:45:19.376Z,14.20
2022-11-14T05:48:07.176Z,20.00
2022-11-14T05:50:59.873Z,17.52
2022-11-14T05:53:47.191Z,18.40
2022-11-14T05:56:35.399Z,18.05
2022-11-14T05:59:24.567Z,18.42
2022-11-14T06:02:12.562Z,23.40
2022-11-14T06:05:00.382Z,20.30
2022-11-14T06:07:47.428Z,16.23
2022-11-14T06:10:36.276Z,15.45
2022-11-14T06:13:25.418Z,18.37
2022-11-14T06:16:17.965Z,17.25
2022-11-14T06:19:06.764Z,15.93
2022-11-14T06:21:55.174Z,14.95
2022-11-14T06:24:43.141Z,14.40
2022-11-14T06:27:30.894Z,11.63
2022-11-14T06:33:06.640Z,15.70
2022-11-14T06:35:59.682Z,18.37
2022-11-14T06:38:47.424Z,18.62
2022-11-14T06:41:35.623Z,21.20
2022-11-14T06:44:29.425Z,23.70
2022-11-14T06:47:14.262Z,22.80
2022-11-14T06:52:49.460Z,16.25
2022-11-14T06:55:38.238Z,22.02
2022-11-14T07:01:23.416Z,18.52
2022-11-14T07:04:12.499Z,10.28
2022-11-14T07:09:48.207Z,9.53
2022-11-14T07:12:36.399Z,10.13
2022-11-14T07:15:24.350Z,10.60
2022-11-14T07:18:13.448Z,9.83
2022-11-14T07:21:03.233Z,10.90
2022-11-14T07:23:50.821Z,12.05
2022-11-14T07:26:40.833Z,6.83
2022-11-14T07:29:28.934Z,9.38
2022-11-14T07:32:17.768Z,12.40
2022-11-14T07:35:06.397Z,8.53
2022-11-14T07:37:54.399Z,8.55
2022-11-14T07:40:43.066Z,8.65
2022-11-14T07:43:31.250Z,11.45
2022-11-14T07:49:07.670Z,13.40
2022-11-14T07:51:55.193Z,8.55
2022-11-14T07:54:44.094Z,9.80
2022-11-14T07:57:35.548Z,7.10
2022-11-14T08:00:24.733Z,9.08
2022-11-14T08:03:12.489Z,7.03
2022-11-14T08:06:06.626Z,9.58
2022-11-14T08:08:54.958Z,8.13
2022-11-14T08:11:49.474Z,6.12
2022-11-14T08:14:39.400Z,6.58
2022-11-14T08:17:26.953Z,21.10
2022-11-14T08:20:17.256Z,9.03
2022-11-14T08:23:07.252Z,9.93
2022-11-14T08:25:59.111Z,7.20
2022-11-14T08:28:47.427Z,6.30
2022-11-14T08:31:35.676Z,6.33
2022-11-14T08:37:12.061Z,5.27
2022-11-14T08:40:02.548Z,5.55
2022-11-14T08:42:51.822Z,7.05
2022-11-14T08:45:40.748Z,8.53
2022-11-14T08:48:28.665Z,6.00
2022-11-14T08:51:17.550Z,6.37
2022-11-14T08:56:53.952Z,7.83
2022-11-14T08:59:42.360Z,5.55
2022-11-14T09:02:31.190Z,9.88
2022-11-14T09:05:19.312Z,9.63
2022-11-14T09:10:55.926Z,3.80
2022-11-14T09:13:44.806Z,6.12
2022-11-14T09:16:33.766Z,6.95
2022-11-14T09:19:21.578Z,5.90
2022-11-14T09:22:09.733Z,7.37
2022-11-14T09:24:57.219Z,8.50
2022-11-14T09:27:45.349Z,7.40
2022-11-14T09:30:35.177Z,11.25
2022-11-14T09:33:23.316Z,5.60
2022-11-14T09:36:13.636Z,7.70
2022-11-14T09:39:01.597Z,4.03
2022-11-14T09:41:59.722Z,4.45
2022-11-14T09:45:07.128Z,5.45
2022-11-14T09:48:13.629Z,8.10
2022-11-14T09:51:10.371Z,5.72
2022-11-14T09:54:21.956Z,5.50
2022-11-14T09:57:18.122Z,3.72
2022-11-14T10:00:20.119Z,3.60
2022-11-14T10:03:19.836Z,5.17
2022-11-14T10:06:33.965Z,6.97
2022-11-14T10:09:45.852Z,7.40
2022-11-14T10:12:43.284Z,7.72
2022-11-14T10:15:41.739Z,8.90
2022-11-14T10:19:24.068Z,5.17
2022-11-14T10:22:40.985Z,4.53
2022-11-14T10:25:54.014Z,5.20
2022-11-14T10:29:00.411Z,6.30
2022-11-14T10:32:29.773Z,7.45
2022-11-14T10:35:41.931Z,4.53
2022-11-14T10:39:10.001Z,4.08
2022-11-14T10:42:07.689Z,5.72
2022-11-14T10:45:25.961Z,4.53
2022-11-14T10:48:18.862Z,7.90
2022-11-14T10:51:24.613Z,7.03
2022-11-14T10:54:48.551Z,4.28
2022-11-14T10:57:39.754Z,4.80
2022-11-14T11:00:27.902Z,5.08
2022-11-14T11:03:16.112Z,4.80
2022-11-14T11:06:05.177Z,4.80
2022-11-14T11:09:13.278Z,12.68
2022-11-14T11:12:02.965Z,6.70
2022-11-14T11:15:21.990Z,7.65
2022-11-14T11:18:35.136Z,11.25
2022-11-14T11:21:24.904Z,5.58
2022-11-14T11:24:12.429Z,7.22
2022-11-14T11:27:28.262Z,5.17
2022-11-14T11:30:25.806Z,6.65
2022-11-14T11:33:23.198Z,7.72
2022-11-14T11:36:19.818Z,5.20
2022-11-14T11:39:12.472Z,4.92
2022-11-14T11:42:10.294Z,8.70
2022-11-14T11:44:58.800Z,7.03
2022-11-14T11:47:56.127Z,3.70
2022-11-14T11:50:45.958Z,4.47
2022-11-14T11:53:47.283Z,5.62
2022-11-14T11:56:36.008Z,2.47
2022-11-14T11:59:37.577Z,5.45
2022-11-14T12:02:26.487Z,5.30
2022-11-14T12:05:33.438Z,2.90
2022-11-14T12:08:38.983Z,5.80
2022-11-14T12:11:27.664Z,5.10
2022-11-14T12:14:51.729Z,4.00
2022-11-14T12:17:56.708Z,4.20
2022-11-14T12:21:06.930Z,4.83
2022-11-14T12:24:05.251Z,4.00
2022-11-14T12:27:30.096Z,3.58
2022-11-14T12:30:22.680Z,6.83
2022-11-14T12:33:22.035Z,3.40
2022-11-14T12:36:11.578Z,5.83
2022-11-14T12:38:58.775Z,5.62
2022-11-14T12:41:47.566Z,3.50
2022-11-14T12:47:31.209Z,4.90
2022-11-14T12:50:43.242Z,4.50
2022-11-14T12:53:40.420Z,4.70
2022-11-14T12:56:37.035Z,6.85
2022-11-14T12:59:41.991Z,4.10
2022-11-14T13:02:54.490Z,6.90
2022-11-14T13:06:20.373Z,6.17
2022-11-14T13:09:41.513Z,6.00
2022-11-14T13:12:52.266Z,4.42
2022-11-14T13:16:12.057Z,8.80
2022-11-14T13:19:40.357Z,6.20
2022-11-14T13:22:41.632Z,4.87
2022-11-14T13:25:30.265Z,7.47
2022-11-14T13:28:45.385Z,7.35
2022-11-14T13:31:43.189Z,8.43
2022-11-14T13:34:39.651Z,13.85
2022-11-14T13:37:35.108Z,3.90
2022-11-14T13:40:59.908Z,4.35
2022-11-14T13:44:02.033Z,6.35
2022-11-14T13:47:10.542Z,6.30
2022-11-14T13:50:17.793Z,9.55
2022-11-14T13:53:17.295Z,10.88
2022-11-14T13:56:22.099Z,5.87
2022-11-14T13:59:20.457Z,6.55
2022-11-14T14:02:33.916Z,7.87
2022-11-14T14:05:50.757Z,4.85
2022-11-14T14:09:08.775Z,4.28
2022-11-14T14:12:10.491Z,8.60
2022-11-14T14:15:23.772Z,6.65
2022-11-14T14:18:54.276Z,5.42
2022-11-14T14:21:56.847Z,7.83
2022-11-14T14:25:23.000Z,9.48
2022-11-14T14:28:32.895Z,7.33
2022-11-14T14:31:22.479Z,6.85
2022-11-14T14:34:31.614Z,7.70
2022-11-14T14:37:28.212Z,11.50
2022-11-14T14:40:34.915Z,6.62
2022-11-14T14:43:30.237Z,6.92
2022-11-14T14:46:19.213Z,8.43
2022-11-14T14:49:07.997Z,8.80
2022-11-14T14:51:58.762Z,7.60
2022-11-14T14:54:55.633Z,7.10
2022-11-14T14:57:42.698Z,7.40
2022-11-14T15:00:30.973Z,7.90
2022-11-14T15:03:18.888Z,8.13
2022-11-14T15:09:22.471Z,5.85
2022-11-14T15:12:11.990Z,10.80
2022-11-14T15:15:01.654Z,9.98
2022-11-14T15:17:49.593Z,7.75
2022-11-14T15:20:39.003Z,12.10
2022-11-14T15:23:26.510Z,11.08
2022-11-14T15:26:19.207Z,9.28
2022-11-14T15:29:21.381Z,9.45
2022-11-14T15:32:13.979Z,6.90
2022-11-14T15:35:10.945Z,7.70
2022-11-14T15:41:22.697Z,5.80
2022-11-14T15:44:30.187Z,10.58
2022-11-14T15:47:27.628Z,5.83
2022-11-14T15:50:21.023Z,5.90
2022-11-14T15:53:22.940Z,7.28
2022-11-14T15:56:13.687Z,6.33
2022-11-14T15:59:01.289Z,6.37
2022-11-14T16:01:53.051Z,9.40
2022-11-14T16:04:46.169Z,7.97
2022-11-14T16:07:31.092Z,7.33
2022-11-14T16:10:23.404Z,10.08
2022-11-14T16:13:12.003Z,6.53
2022-11-14T16:16:00.004Z,6.60
2022-11-14T16:21:36.862Z,10.48
2022-11-14T16:24:24.518Z,6.15
2022-11-14T16:27:12.918Z,6.37
2022-11-14T16:30:01.134Z,7.22
2022-11-14T16:32:49.479Z,7.25
2022-11-14T16:35:37.284Z,5.78
2022-11-14T16:38:25.278Z,8.43
2022-11-14T16:41:13.995Z,7.67
2022-11-14T16:44:02.018Z,6.90
2022-11-14T16:46:50.449Z,8.30
2022-11-14T16:49:37.975Z,4.90
2022-11-14T16:52:25.250Z,7.08
2022-11-14T16:55:12.889Z,7.83
2022-11-14T16:58:00.875Z,6.30
2022-11-14T17:00:47.888Z,7.45
2022-11-14T17:03:36.555Z,7.15
2022-11-14T17:06:23.989Z,8.83
2022-11-14T17:09:15.369Z,7.65
2022-11-14T17:12:02.538Z,8.83
2022-11-14T17:14:51.200Z,6.37
2022-11-14T17:20:27.908Z,5.92
2022-11-14T17:23:16.415Z,9.55
2022-11-14T17:26:05.943Z,11.05
2022-11-14T17:28:53.784Z,7.62
2022-11-14T17:34:31.000Z,9.35
2022-11-14T17:37:19.822Z,12.33
2022-11-14T17:40:12.720Z,8.43
2022-11-14T17:42:58.177Z,10.32
2022-11-14T17:45:56.241Z,11.95
2022-11-14T17:48:45.105Z,8.43
2022-11-14T17:51:33.384Z,7.70
2022-11-14T17:57:10.064Z,8.98
2022-11-14T17:59:57.491Z,10.23
2022-11-14T18:02:44.488Z,10.63
2022-11-14T18:05:31.967Z,5.58
2022-11-14T18:08:19.858Z,6.95
2022-11-14T18:11:11.512Z,9.58
2022-11-14T18:13:59.516Z,9.35
2022-11-14T18:17:11.886Z,7.92
2022-11-14T18:19:39.461Z,8.45
2022-11-14T18:22:28.041Z,8.10
2022-11-14T18:25:17.959Z,6.12
2022-11-14T18:28:06.008Z,7.20
2022-11-14T18:30:56.302Z,7.20
2022-11-14T18:33:43.958Z,10.78
2022-11-14T18:39:18.070Z,7.85
2022-11-14T18:42:06.893Z,8.15
2022-11-14T18:44:56.907Z,10.15
2022-11-14T18:47:46.907Z,6.47
2022-11-14T18:50:34.918Z,6.65
2022-11-14T18:53:23.670Z,6.83
2022-11-14T18:56:14.747Z,9.85
2022-11-14T18:59:02.130Z,5.92
2022-11-14T19:01:50.607Z,6.00
2022-11-14T19:04:41.887Z,6.12
2022-11-14T19:07:30.331Z,6.50
2022-11-14T19:10:19.229Z,7.35
2022-11-14T19:13:07.688Z,8.43
2022-11-14T19:15:57.472Z,8.13
2022-11-14T19:18:46.267Z,7.17
2022-11-14T19:21:33.798Z,6.25
2022-11-14T19:27:10.226Z,9.23
2022-11-14T19:29:58.155Z,11.88
2022-11-14T19:32:47.450Z,9.65
2022-11-14T19:35:39.399Z,8.10
2022-11-14T19:38:28.141Z,9.18
2022-11-14T19:41:23.239Z,9.40
2022-11-14T19:44:10.670Z,9.53
2022-11-14T19:47:00.556Z,10.35
2022-11-14T19:49:49.713Z,7.05
2022-11-14T19:52:37.462Z,10.70
2022-11-14T19:55:25.709Z,8.05
2022-11-14T19:58:14.108Z,9.95
2022-11-14T20:01:08.667Z,9.93
2022-11-14T20:04:00.647Z,10.18
2022-11-14T20:06:49.539Z,8.70
2022-11-14T20:09:37.138Z,9.73
2022-11-14T20:12:26.105Z,8.65
2022-11-14T20:15:14.252Z,10.48
2022-11-14T20:18:01.624Z,10.48
2022-11-14T20:20:49.300Z,12.95
2022-11-14T20:23:37.455Z,11.63
2022-11-14T20:26:25.585Z,9.73
2022-11-14T20:29:14.236Z,11.53
2022-11-14T20:32:03.189Z,12.23
2022-11-14T20:34:50.502Z,11.20
2022-11-14T20:37:42.183Z,13.35
2022-11-14T20:40:29.752Z,10.63
2022-11-14T20:43:18.000Z,19.40
2022-11-14T20:46:16.588Z,17.10
2022-11-14T20:49:06.250Z,21.17
2022-11-14T20:51:55.638Z,18.37
2022-11-14T20:54:43.557Z,17.32
2022-11-14T20:57:35.212Z,20.20
2022-11-14T21:00:24.187Z,21.68
2022-11-14T21:03:12.327Z,20.32
2022-11-14T21:06:01.063Z,18.20
2022-11-14T21:08:49.335Z,20.35
2022-11-14T21:11:38.710Z,20.90
2022-11-14T21:14:26.767Z,16.82
2022-11-14T21:17:15.298Z,16.48
2022-11-14T21:20:03.079Z,19.15
2022-11-14T21:22:50.981Z,19.85
2022-11-14T21:25:40.780Z,22.73
2022-11-14T21:28:31.204Z,18.40
2022-11-14T21:31:31.773Z,20.05
2022-11-14T21:34:19.492Z,16.65
2022-11-14T21:37:07.898Z,18.65
2022-11-14T21:42:43.249Z,20.55
2022-11-14T21:45:31.876Z,24.18
2022-11-14T21:48:20.542Z,16.70
2022-11-14T21:51:12.647Z,21.15
2022-11-14T21:54:06.424Z,25.80
2022-11-14T21:56:54.140Z,23.50
2022-11-14T21:59:42.248Z,28.62
2022-11-14T22:02:49.531Z,21.50
2022-11-14T22:05:37.605Z,23.57
2022-11-14T22:08:25.806Z,24.07
2022-11-14T22:11:14.165Z,21.57
2022-11-14T22:14:01.795Z,21.50
2022-11-14T22:16:51.376Z,23.45
2022-11-14T22:19:39.827Z,19.00
2022-11-14T22:22:28.001Z,21.02
2022-11-14T22:25:16.715Z,18.35
2022-11-14T22:28:05.348Z,15.03
2022-11-14T22:31:14.887Z,9.98
2022-11-14T22:34:03.473Z,10.93
2022-11-14T22:36:52.510Z,9.65
2022-11-14T22:39:39.806Z,9.55
2022-11-14T22:42:27.388Z,7.42
2022-11-14T22:45:15.321Z,9.80
2022-11-14T22:48:04.205Z,9.38
2022-11-14T22:51:02.048Z,6.75
2022-11-14T22:53:52.135Z,6.35
2022-11-14T22:56:41.405Z,8.50
2022-11-14T23:02:15.708Z,7.53
2022-11-14T23:05:05.455Z,6.53
2022-11-14T23:07:55.116Z,6.95
2022-11-14T23:10:42.665Z,8.10
2022-11-14T23:13:31.398Z,9.90
2022-11-14T23:16:23.649Z,7.22
2022-11-14T23:19:11.535Z,7.78
2022-11-14T23:22:00.920Z,8.68
2022-11-14T23:24:49.832Z,6.80
2022-11-14T23:27:39.192Z,7.47
2022-11-14T23:30:27.909Z,9.60
2022-11-14T23:33:16.593Z,5.53
2022-11-14T23:36:05.772Z,9.63
2022-11-14T23:38:53.635Z,7.10
2022-11-14T23:44:28.496Z,8.28
2022-11-14T23:47:15.722Z,7.78
2022-11-14T23:50:03.197Z,8.00
2022-11-14T23:52:51.682Z,6.08
2022-11-14T23:55:39.355Z,6.05
2022-11-14T23:58:28.942Z,8.95
